Detall de PIREP

Printer-friendly versionPDF version

[2012/02/10 08:57:00]
Flight IATA:CT0001
Pilot Number:041
Company ICAO:CAT
Aircraft Type:F70/E
PAX:50
Aircraft Registration:DA
Departing Airport: LELC
Destination Airport: LEVC
Alternate Airport:LEPA
Online: VATSIM
Route:ALT
Flight Level:F130
No Slew and time accel
No pause
Crash detect
Detect pilot in Cockpit between each 30 and 45 minutes
08:57 Zero fuel Weight: 67875 Lbs, Fuel Weight: 6340 Lbs
08:57 VATSIM:LELC 100800Z 27007KT CAVOK 06/M04 Q1021 NOSIG
08:57 VATSIM:LEVC 100830Z 27006KT CAVOK 04/M05 Q1021 NOSIG
08:57 VOICE CATALONIAN
09:03 Parking Brakes off
09:09 Take-off
09:09 Take off Weight: 73820 Lbs
09:09 Wind: 273º @ 006 Knots Heading: 225º
09:09 POS N37º 46´ 26´´ W000º 48´ 48´´
09:09 Gear Up: 146 Knots
09:09 Flaps:2 at 146 Knots
09:09 Flaps:1 at 153 Knots
09:09 Flaps:0 at 155 Knots
09:14 TOC
09:14 Fuel Weight: 5164 Lb
09:24 Wind:031º@019 Knots Heading: 359º Ground Speed: 310 Knots Altitude 13231 ft
09:36 TOD
09:36 Fuel Weight: 3402 Lb
09:39 Wind:032º@016 Knots Heading: 342º Ground Speed: 275 Knots Altitude 7598 ft
09:54 Wind:018º@009 Knots Heading: 093º Ground Speed: 231 Knots Altitude 4051 ft
09:59 Flaps:1 at 229 Knots
09:59 Flaps:2 at 217 Knots
10:05 Flaps:3 at 190 Knots
10:06 Gear Down: 172 Knots
10:06 Flaps:4 at 169 Knots
10:09 Wind:263º@003 Knots Heading: 294º Ground Speed: 113 Knots Altitude 1295 ft
10:10 TouchDown:Rate -105 ft/min Speed: 107 Knots
10:11 VATSIM:LEVC 101000Z VRB01KT CAVOK 09/M06 Q1021 NOSIG
10:11 Land
10:11 Wind:253º@002 Knots
10:11 Heading: 281º
10:11 Flight Duration: 01:02
10:11 Landing Weight: 69592 Lbs
10:11 POS N39º 29´ 21´´ W000º 28´ 54´´
10:12 Parking brakes on
10:12 Block to Block Duration: 01:10
10:12 Final Fuel: 1649 Lbls
10:12 Spent Fuel: 4691 Lbls
10:12 Flight Length: 232 NM
10:12 TOD Land Length: 97 NM

Exportar CSV

Powered by Drupal - Modified by Danger4k